Time;durP1;ratioP1;P1;durP2;ratioP2;P2;SDS_P1;SDS_P2;PMS_P1;PMS_P2;Temp;Humidity;BMP_temperature;BMP_pressure;BME280_temperature;BME280_humidity;BME280_pressure;Samples;Min_cycle;Max_cycle;Signal;HPM_P1;HPM_P2
2021/03/22 05:59:32;;;;;;;;;;;;;;;0.26;83.05;96872.73;1794200;76;20478;-68
2021/03/22 06:02:06;;;;;;;;;;;;;;;0.45;81.26;96872.89;1786730;78;21973;-68
2021/03/22 06:04:51;;;;;;;;;;;;;;;0.63;78.53;96878.23;1794538;78;20585;-69
2021/03/22 06:07:21;;;;;;;;;;;;;;;0.79;74.89;96878.56;1795633;78;20491;-64
2021/03/22 06:09:53;;;;;;;;;;;;;;;1.00;70.56;96881.40;1795312;78;38465;-62
2021/03/22 06:12:44;;;;;;;;;;;;;;;1.21;67.29;96881.60;1792088;78;20736;-66
2021/03/22 06:15:46;;;;;;;;;;;;;;;1.35;65.27;96882.33;1763687;79;22082;-64
2021/03/22 06:18:38;;;;;;;;;;;;;;;1.47;64.44;96878.06;1794594;78;20633;-64
2021/03/22 06:21:13;;;;;;;;;;;;;;;1.55;64.40;96883.80;1791674;78;20624;-63
2021/03/22 06:23:43;;;;;;;;;;;;;;;1.62;65.50;96890.23;1791915;78;21017;-64
2021/03/22 06:26:18;;;;;;;;;;;;;;;1.66;65.97;96894.50;1787878;78;20801;-66
2021/03/22 06:28:47;;;;;;;;;;;;;;;1.69;66.15;96892.77;1791739;78;22028;-64
2021/03/22 06:31:18;;;;;;;;;;;;;;;1.70;65.32;96895.16;1791638;78;20496;-65
2021/03/22 06:33:48;;;;;;;;;;;;;;;1.74;65.67;96898.11;1791688;78;20577;-64
2021/03/22 06:36:20;;;;;;;;;;;;;;;1.79;66.45;96894.41;1797242;78;20370;-64
2021/03/22 06:38:55;;;;;;;;;;;;;;;1.86;65.66;96899.84;1787011;78;20589;-64
2021/03/22 06:41:55;;;;;;;;;;;;;;;1.95;65.46;96893.88;1792561;78;21813;-69
2021/03/22 06:44:39;;;;;;;;;;;;;;;2.02;65.45;96893.32;1788633;78;20480;-69
2021/03/22 06:47:14;;;;;;;;;;;;;;;2.09;64.24;96895.36;1790367;78;20246;-68
2021/03/22 06:49:47;;;;;;;;;;;;;;;2.11;64.23;96896.45;1788498;78;20633;-63
2021/03/22 06:52:18;;;;;;;;;;;;;;;2.16;64.79;96894.80;1791204;78;20687;-68
2021/03/22 06:54:51;;;;;;;;;;;;;;;2.21;64.40;96889.80;1793404;78;21862;-72
2021/03/22 06:57:21;;;;;;;;;;;;;;;2.30;64.37;96901.48;1791794;78;20393;-65
2021/03/22 07:00:18;;;;;;;;;;;;;;;2.37;64.20;96901.92;1795230;77;20551;-63
2021/03/22 07:02:53;;;;;;;;;;;;;;;2.42;63.71;96908.55;1783315;78;20524;-63
2021/03/22 07:05:26;;;;;;;;;;;;;;;2.47;64.55;96905.60;1757541;78;20627;-64
2021/03/22 07:08:09;;;;;;;;;;;;;;;2.50;64.52;96901.30;1785582;78;22001;-63
2021/03/22 07:10:40;;;;;;;;;;;;;;;2.53;64.82;96905.25;1778479;79;20397;-66
2021/03/22 07:13:23;;;;;;;;;;;;;;;2.57;65.59;96901.23;1805553;77;20508;-69
2021/03/22 07:15:52;;;;;;;;;;;;;;;2.65;65.40;96912.63;1805432;77;20742;-67
2021/03/22 07:18:26;;;;;;;;;;;;;;;2.66;65.27;96903.84;1780647;78;20592;-70
2021/03/22 07:21:13;;;;;;;;;;;;;;;2.67;65.53;96902.81;1778831;78;20789;-68
2021/03/22 07:23:47;;;;;;;;;;;;;;;2.69;65.68;96900.80;1779819;78;20586;-68
2021/03/22 07:26:39;;;;;;;;;;;;;;;2.74;65.97;96903.03;1786495;77;20633;-67
2021/03/22 07:29:33;;;;;;;;;;;;;;;2.82;66.15;96914.13;1787452;77;20470;-68
2021/03/22 07:32:17;;;;;;;;;;;;;;;2.88;66.32;96909.41;1781701;78;20573;-67
2021/03/22 07:35:01;;;;;;;;;;;;;;;2.88;67.23;96910.17;1773774;79;21815;-61
2021/03/22 07:37:56;;;;;;;;;;;;;;;2.89;67.86;96913.56;1783044;77;20807;-66
2021/03/22 07:40:58;;;;;;;;;;;;;;;2.96;67.75;96912.48;1788317;77;20381;-67
2021/03/22 07:44:06;;;;;;;;;;;;;;;3.08;67.67;96908.17;1790661;77;20685;-66
2021/03/22 07:46:44;;;;;;;;;;;;;;;3.06;67.03;96915.38;1794734;77;20665;-65
2021/03/22 07:49:39;;;;;;;;;;;;;;;3.07;66.19;96914.37;1794066;77;22055;-70
2021/03/22 07:52:14;;;;;;;;;;;;;;;3.11;66.51;96932.38;1797812;77;20471;-65
2021/03/22 07:54:56;;;;;;;;;;;;;;;3.13;66.34;96925.67;1792783;78;20630;-65
2021/03/22 07:57:51;;;;;;;;;;;;;;;3.13;66.32;96925.17;1797764;77;20565;-64
2021/03/22 08:00:40;;;;;;;;;;;;;;;3.10;66.84;96923.50;1793597;78;20758;-64
2021/03/22 08:03:23;;;;;;;;;;;;;;;3.11;67.06;96928.48;1797582;77;21887;-70
2021/03/22 08:06:10;;;;;;;;;;;;;;;3.14;67.11;96927.27;1791740;77;20468;-67
2021/03/22 08:08:59;;;;;;;;;;;;;;;3.14;67.25;96930.66;1795711;78;20294;-64
2021/03/22 08:12:01;;;;;;;;;;;;;;;3.18;68.00;96934.10;1797062;78;20547;-66
2021/03/22 08:14:32;;;;;;;;;;;;;;;3.22;68.28;96931.38;1764344;77;20600;-66
2021/03/22 08:17:13;;;;;;;;;;;;;;;3.26;68.57;96930.71;1759297;78;21888;-63
2021/03/22 08:20:00;;;;;;;;;;;;;;;3.32;68.41;96935.03;1794113;78;20291;-67
2021/03/22 08:22:33;;;;;;;;;;;;;;;3.34;68.83;96936.11;1797431;78;20487;-68
2021/03/22 08:25:26;;;;;;;;;;;;;;;3.38;68.61;96941.17;1794427;78;20595;-65
2021/03/22 08:28:16;;;;;;;;;;;;;;;3.40;69.04;96941.73;1794142;78;20619;-71
2021/03/22 08:31:06;;;;;;;;;;;;;;;3.40;68.96;96945.13;1790864;78;21882;-70
2021/03/22 08:33:41;;;;;;;;;;;;;;;3.40;69.24;96950.81;1687060;78;26156;-69
2021/03/22 08:36:35;;;;;;;;;;;;;;;3.37;69.98;96951.27;1679052;84;20578;-69
2021/03/22 08:39:08;;;;;;;;;;;;;;;3.33;70.96;96948.80;1680419;83;20570;-65
2021/03/22 08:41:39;;;;;;;;;;;;;;;3.31;72.69;96945.16;1679042;84;20555;-65
2021/03/22 08:44:17;;;;;;;;;;;;;;;3.36;72.63;96949.68;1664955;84;21967;-67
2021/03/22 08:46:48;;;;;;;;;;;;;;;3.40;72.94;96942.52;1670581;83;20627;-66
2021/03/22 08:49:37;;;;;;;;;;;;;;;3.46;73.21;96949.94;1665082;83;20410;-69
2021/03/22 08:52:05;;;;;;;;;;;;;;;3.49;73.14;96941.22;1670632;84;20627;-68
2021/03/22 08:54:34;;;;;;;;;;;;;;;3.53;73.46;96943.65;1660958;84;20665;-67
2021/03/22 08:57:25;;;;;;;;;;;;;;;3.58;74.01;96940.41;1664186;84;21902;-64
2021/03/22 09:00:11;;;;;;;;;;;;;;;3.61;73.96;96951.65;1664215;84;20251;-69
2021/03/22 09:02:39;;;;;;;;;;;;;;;3.69;73.81;96947.45;1662981;84;20338;-64
2021/03/22 09:05:19;;;;;;;;;;;;;;;3.74;73.83;96949.41;1666734;84;20426;-63
2021/03/22 09:07:47;;;;;;;;;;;;;;;3.79;73.73;96950.32;1668384;83;20596;-68
2021/03/22 09:10:30;;;;;;;;;;;;;;;3.82;73.95;96950.37;1669133;83;21796;-64
2021/03/22 09:13:08;;;;;;;;;;;;;;;3.77;73.59;96957.53;1671877;83;20400;-63
2021/03/22 09:15:38;;;;;;;;;;;;;;;3.64;72.50;96958.22;1652727;85;20506;-63
2021/03/22 09:18:11;;;;;;;;;;;;;;;3.39;72.60;96955.72;1675535;83;20579;-69
2021/03/22 09:20:51;;;;;;;;;;;;;;;3.20;73.49;96966.64;1672505;83;20544;-65
2021/03/22 09:23:35;;;;;;;;;;;;;;;3.09;74.55;96971.27;1678836;83;21365;-66
2021/03/22 09:26:04;;;;;;;;;;;;;;;3.03;74.76;96981.19;1680275;83;20483;-69
2021/03/22 09:28:35;;;;;;;;;;;;;;;2.94;76.44;96980.70;1680018;83;20582;-69
2021/03/22 09:31:15;;;;;;;;;;;;;;;2.95;76.95;96990.08;1677818;83;20723;-69
2021/03/22 09:33:55;;;;;;;;;;;;;;;2.99;78.16;96990.42;1668496;83;20933;-71
2021/03/22 09:36:41;;;;;;;;;;;;;;;3.09;78.66;96990.23;1665450;83;20761;-69
2021/03/22 09:39:21;;;;;;;;;;;;;;;3.20;77.93;96993.11;1671414;84;20836;-68
2021/03/22 09:42:14;;;;;;;;;;;;;;;3.20;77.65;96993.90;1658478;84;20457;-68
2021/03/22 09:44:57;;;;;;;;;;;;;;;3.10;78.20;97002.17;1670326;84;20541;-69
2021/03/22 09:47:41;;;;;;;;;;;;;;;3.03;78.51;96998.86;1653948;83;20840;-68
2021/03/22 09:50:24;;;;;;;;;;;;;;;3.01;79.66;97000.89;1668579;83;21912;-66
2021/03/22 09:52:55;;;;;;;;;;;;;;;2.99;79.10;97000.81;1672803;84;20536;-70
2021/03/22 09:55:29;;;;;;;;;;;;;;;2.89;80.10;97009.58;1668143;84;20509;-67
2021/03/22 09:57:58;;;;;;;;;;;;;;;2.80;80.99;97001.30;1669938;83;20516;-67
2021/03/22 10:00:30;;;;;;;;;;;;;;;2.70;80.99;97011.35;1668834;83;20739;-71
2021/03/22 10:03:01;;;;;;;;;;;;;;;2.67;83.59;97001.39;1666226;83;21384;-67
2021/03/22 10:05:32;;;;;;;;;;;;;;;2.72;84.49;97000.27;1661999;83;20595;-73
2021/03/22 10:08:14;;;;;;;;;;;;;;;2.81;83.60;97008.05;1665466;84;20504;-69
2021/03/22 10:10:54;;;;;;;;;;;;;;;2.83;83.05;97007.34;1671029;83;20566;-68
2021/03/22 10:13:45;;;;;;;;;;;;;;;2.87;84.04;97007.22;1667429;83;20887;-68
2021/03/22 10:16:21;;;;;;;;;;;;;;;2.92;84.04;97015.15;1667055;83;20742;-72
2021/03/22 10:18:54;;;;;;;;;;;;;;;2.88;82.34;97014.50;1670127;83;20488;-67
2021/03/22 10:21:40;;;;;;;;;;;;;;;2.88;82.89;97019.16;1669565;83;20243;-73
2021/03/22 10:24:15;;;;;;;;;;;;;;;2.91;84.20;97016.16;1666621;84;20524;-69
2021/03/22 10:26:47;;;;;;;;;;;;;;;3.05;84.17;97018.11;1671769;83;20585;-70
2021/03/22 10:29:25;;;;;;;;;;;;;;;3.13;83.90;97024.33;1670290;83;21907;-68
2021/03/22 10:32:19;;;;;;;;;;;;;;;3.18;83.14;97031.47;1667876;83;20694;-69
2021/03/22 10:34:56;;;;;;;;;;;;;;;3.10;82.02;97029.44;1672067;83;20310;-69
2021/03/22 10:37:32;;;;;;;;;;;;;;;2.95;83.42;97037.30;1606448;86;20617;-68
2021/03/22 10:40:02;;;;;;;;;;;;;;;2.79;84.10;97041.72;1618677;86;20628;-73
2021/03/22 10:42:36;;;;;;;;;;;;;;;2.70;84.37;97043.78;1608031;87;20986;-69
2021/03/22 10:45:26;;;;;;;;;;;;;;;2.68;86.45;97045.78;1606419;87;20598;-69
2021/03/22 10:47:55;;;;;;;;;;;;;;;2.78;87.53;97045.32;1606498;87;20585;-67
2021/03/22 10:50:32;;;;;;;;;;;;;;;2.90;87.83;97044.91;1611732;86;20811;-68
2021/03/22 10:53:13;;;;;;;;;;;;;;;3.01;85.36;97043.72;1627999;86;20704;-65
2021/03/22 10:55:47;;;;;;;;;;;;;;;3.06;83.40;97045.67;1628990;85;22101;-61
2021/03/22 10:58:24;;;;;;;;;;;;;;;3.04;84.15;97051.06;1624732;85;20610;-64
2021/03/22 11:01:00;;;;;;;;;;;;;;;3.04;84.31;97045.88;1634684;85;20507;-62
2021/03/22 11:03:28;;;;;;;;;;;;;;;3.07;84.31;97043.36;1642865;85;20345;-62
2021/03/22 11:05:57;;;;;;;;;;;;;;;3.10;82.82;97052.00;1617795;86;20674;-62
2021/03/22 11:08:33;;;;;;;;;;;;;;;3.06;82.67;97045.16;1611753;86;21084;-66
2021/03/22 11:11:15;;;;;;;;;;;;;;;3.04;83.81;97045.88;1637739;85;20585;-71
2021/03/22 11:13:45;;;;;;;;;;;;;;;3.02;84.89;97047.11;1640467;85;20323;-66
2021/03/22 11:16:26;;;;;;;;;;;;;;;2.95;82.49;97056.27;1638341;85;20601;-68
2021/03/22 11:18:58;;;;;;;;;;;;;;;2.93;82.23;97050.48;1623530;86;20592;-68
2021/03/22 11:21:31;;;;;;;;;;;;;;;2.97;80.43;97038.66;1623819;86;21977;-67
2021/03/22 11:23:59;;;;;;;;;;;;;;;3.00;80.51;97051.22;1613663;88;20525;-63
2021/03/22 11:26:29;;;;;;;;;;;;;;;3.12;82.46;97044.30;1641376;86;20237;-61
2021/03/22 11:29:19;;;;;;;;;;;;;;;3.32;82.16;97048.50;1628407;87;20518;-63
2021/03/22 11:31:49;;;;;;;;;;;;;;;3.49;79.31;97043.83;1633412;86;20797;-65
2021/03/22 11:34:36;;;;;;;;;;;;;;;3.65;77.37;97041.66;1632594;86;21910;-68
2021/03/22 11:37:20;;;;;;;;;;;;;;;3.69;76.04;97045.39;1630554;87;20504;-69
2021/03/22 11:40:08;;;;;;;;;;;;;;;3.69;75.13;97036.30;1634708;85;20512;-72
2021/03/22 11:42:39;;;;;;;;;;;;;;;3.64;76.38;97042.16;1628725;86;20342;-66
2021/03/22 11:45:38;;;;;;;;;;;;;;;3.66;75.50;97040.15;1627917;86;20579;-66
2021/03/22 11:48:25;;;;;;;;;;;;;;;3.71;76.69;97038.98;1632541;87;21896;-69
2021/03/22 11:51:04;;;;;;;;;;;;;;;3.85;74.36;97041.70;1626667;87;20583;-65
2021/03/22 11:53:32;;;;;;;;;;;;;;;3.93;72.65;97028.41;1633314;87;20330;-69
2021/03/22 11:56:20;;;;;;;;;;;;;;;3.85;71.51;97041.70;1627721;86;20330;-68
2021/03/22 11:58:49;;;;;;;;;;;;;;;3.64;76.31;97044.76;1633249;86;20811;-68
2021/03/22 12:01:26;;;;;;;;;;;;;;;3.25;80.86;97051.66;1630746;87;21769;-68
2021/03/22 12:04:05;;;;;;;;;;;;;;;3.08;84.43;97054.84;1630762;87;20496;-70
2021/03/22 12:06:36;;;;;;;;;;;;;;;2.96;84.61;97065.61;1628081;86;20516;-71
2021/03/22 12:09:12;;;;;;;;;;;;;;;2.88;83.95;97064.58;1596793;87;20779;-69
2021/03/22 12:11:40;;;;;;;;;;;;;;;2.87;83.40;97068.20;1629650;85;20668;-70
2021/03/22 12:14:09;;;;;;;;;;;;;;;2.86;82.84;97069.20;1644490;85;21255;-73
2021/03/22 12:16:39;;;;;;;;;;;;;;;2.91;84.67;97073.75;1633237;87;20604;-71
2021/03/22 12:19:11;;;;;;;;;;;;;;;2.98;82.91;97074.48;1635013;87;20487;-66
2021/03/22 12:21:39;;;;;;;;;;;;;;;2.96;81.64;97077.29;1632825;87;20595;-72
2021/03/22 12:24:09;;;;;;;;;;;;;;;2.89;79.77;97070.56;1630788;87;20575;-71
2021/03/22 12:26:36;;;;;;;;;;;;;;;2.78;80.59;97079.05;1614378;87;21949;-65
2021/03/22 12:29:05;;;;;;;;;;;;;;;2.74;82.55;97079.96;1633787;87;20502;-68
2021/03/22 12:31:47;;;;;;;;;;;;;;;2.69;82.74;97085.00;1634288;86;20592;-72
2021/03/22 12:34:19;;;;;;;;;;;;;;;2.61;82.07;97083.45;1635438;85;20491;-69
2021/03/22 12:36:49;;;;;;;;;;;;;;;2.52;82.79;97082.11;1622618;87;20662;-68
2021/03/22 12:39:21;;;;;;;;;;;;;;;2.44;84.36;97077.20;1623451;86;22397;-67
2021/03/22 12:41:55;;;;;;;;;;;;;;;2.39;81.95;97089.18;1625940;86;20766;-70
2021/03/22 12:44:24;;;;;;;;;;;;;;;2.38;86.01;97085.03;1642399;86;20802;-65
2021/03/22 12:46:51;;;;;;;;;;;;;;;2.42;85.37;97093.47;1644313;86;20548;-71
2021/03/22 12:49:21;;;;;;;;;;;;;;;2.40;85.17;97093.37;1647921;85;20543;-73
2021/03/22 12:51:49;;;;;;;;;;;;;;;2.35;83.86;97088.82;1650304;86;21950;-66
2021/03/22 12:54:16;;;;;;;;;;;;;;;2.33;84.86;97112.86;1655140;85;20500;-72
2021/03/22 12:56:44;;;;;;;;;;;;;;;2.21;82.66;97090.70;1654291;86;20598;-66
2021/03/22 12:59:27;;;;;;;;;;;;;;;2.21;83.74;97106.25;1652285;86;20660;-65
2021/03/22 13:01:56;;;;;;;;;;;;;;;2.10;85.86;97106.09;1649312;85;20693;-68
2021/03/22 13:04:26;;;;;;;;;;;;;;;2.08;88.57;97105.52;1642354;85;22002;-66
2021/03/22 13:06:54;;;;;;;;;;;;;;;2.11;88.14;97110.27;1652326;86;20597;-70
2021/03/22 13:09:22;;;;;;;;;;;;;;;2.10;88.43;97119.05;1650146;86;20504;-67
2021/03/22 13:11:51;;;;;;;;;;;;;;;2.02;87.44;97122.67;1649448;86;20330;-73
2021/03/22 13:14:19;;;;;;;;;;;;;;;1.85;90.53;97122.84;1647391;86;20623;-71
2021/03/22 13:16:46;;;;;;;;;;;;;;;1.65;96.39;97128.59;1648728;86;21906;-68
2021/03/22 13:19:15;;;;;;;;;;;;;;;1.51;99.86;97135.59;1643998;86;20210;-69
2021/03/22 13:21:44;;;;;;;;;;;;;;;1.46;99.45;97132.80;1652065;86;20639;-68
2021/03/22 13:24:17;;;;;;;;;;;;;;;1.48;100.00;97133.40;1649130;86;20595;-72
2021/03/22 13:26:46;;;;;;;;;;;;;;;1.53;98.06;97143.94;1647626;86;20577;-69
2021/03/22 13:29:14;;;;;;;;;;;;;;;1.59;96.20;97141.83;1648933;86;22078;-67
2021/03/22 13:31:43;;;;;;;;;;;;;;;1.65;93.85;97148.02;1642141;86;20280;-66
2021/03/22 13:34:13;;;;;;;;;;;;;;;1.72;94.45;97143.13;1645525;86;20627;-69
2021/03/22 13:36:43;;;;;;;;;;;;;;;1.72;92.94;97142.32;1647871;86;20326;-70
2021/03/22 13:39:13;;;;;;;;;;;;;;;1.75;94.02;97145.78;1650117;86;20710;-68
2021/03/22 13:41:43;;;;;;;;;;;;;;;1.76;93.10;97145.59;1646771;86;22076;-63
2021/03/22 13:44:13;;;;;;;;;;;;;;;1.76;93.06;97145.59;1646665;86;20525;-66
2021/03/22 13:46:41;;;;;;;;;;;;;;;1.78;92.91;97147.98;1623612;87;20544;-65
2021/03/22 13:49:10;;;;;;;;;;;;;;;1.74;90.96;97154.05;1626320;86;20503;-65
2021/03/22 13:51:40;;;;;;;;;;;;;;;1.66;92.97;97156.09;1634439;85;20629;-68
2021/03/22 13:54:10;;;;;;;;;;;;;;;1.58;92.96;97161.75;1629220;85;21914;-71
2021/03/22 13:56:40;;;;;;;;;;;;;;;1.58;92.06;97157.59;1611754;87;20491;-70
2021/03/22 13:59:19;;;;;;;;;;;;;;;1.56;90.58;97156.00;1620526;87;20253;-65
2021/03/22 14:01:48;;;;;;;;;;;;;;;1.58;88.81;97152.42;1636002;86;20619;-69
2021/03/22 14:04:16;;;;;;;;;;;;;;;1.64;88.38;97159.38;1597717;87;20501;-68
2021/03/22 14:06:45;;;;;;;;;;;;;;;1.67;86.09;97152.47;1620288;86;21915;-66
2021/03/22 14:09:13;;;;;;;;;;;;;;;1.73;85.09;97145.98;1624781;87;20603;-62
2021/03/22 14:11:41;;;;;;;;;;;;;;;1.80;83.65;97149.87;1634510;87;20497;-66
2021/03/22 14:14:09;;;;;;;;;;;;;;;1.83;80.76;97155.44;1625486;87;20505;-68
2021/03/22 14:16:37;;;;;;;;;;;;;;;1.83;80.91;97155.44;1628719;87;20513;-65
2021/03/22 14:19:06;;;;;;;;;;;;;;;1.85;79.82;97156.53;1643638;85;21934;-71
2021/03/22 14:21:34;;;;;;;;;;;;;;;1.89;79.20;97160.29;1648446;84;20618;-66
2021/03/22 14:24:05;;;;;;;;;;;;;;;1.90;78.03;97156.70;1625358;87;20501;-69
2021/03/22 14:26:33;;;;;;;;;;;;;;;1.88;76.89;97159.49;1643202;85;20383;-70
2021/03/22 14:29:01;;;;;;;;;;;;;;;1.89;77.49;97161.59;1654552;86;20637;-63
2021/03/22 14:31:31;;;;;;;;;;;;;;;1.91;77.52;97166.88;1627299;86;21911;-67
2021/03/22 14:33:59;;;;;;;;;;;;;;;1.89;76.46;97165.47;1653484;85;20264;-63
2021/03/22 14:36:28;;;;;;;;;;;;;;;1.87;76.71;97164.38;1648666;86;20628;-64
2021/03/22 14:38:57;;;;;;;;;;;;;;;1.85;77.44;97165.59;1631003;85;20543;-75
2021/03/22 14:41:25;;;;;;;;;;;;;;;1.83;77.08;97168.39;1622425;86;20796;-67
2021/03/22 14:43:54;;;;;;;;;;;;;;;1.81;76.80;97169.58;1625120;86;22391;-67
2021/03/22 14:46:22;;;;;;;;;;;;;;;1.81;76.50;97170.88;1649289;85;20605;-69
2021/03/22 14:48:50;;;;;;;;;;;;;;;1.80;75.65;97178.38;1650646;84;20609;-72
2021/03/22 14:51:18;;;;;;;;;;;;;;;1.75;75.23;97168.60;1649600;85;20702;-70
2021/03/22 14:53:46;;;;;;;;;;;;;;;1.73;75.91;97174.47;1617930;86;20690;-66
2021/03/22 14:56:16;;;;;;;;;;;;;;;1.71;75.93;97171.31;1618368;87;22106;-71
2021/03/22 14:58:47;;;;;;;;;;;;;;;1.74;73.78;97176.56;1649548;85;20254;-69
